createdAt,value
2022-12-01T00:00:21.214Z,76.79
2022-12-01T00:02:54.023Z,76.93
2022-12-01T00:05:07.482Z,77.08
2022-12-01T00:07:21.056Z,77.01
2022-12-01T00:09:50.823Z,77.10
2022-12-01T00:12:03.668Z,76.97
2022-12-01T00:14:17.383Z,77.17
2022-12-01T00:16:30.286Z,76.95
2022-12-01T00:18:46.610Z,77.08
2022-12-01T00:26:43.321Z,76.99
2022-12-01T00:28:58.030Z,77.01
2022-12-01T00:31:14.368Z,76.96
2022-12-01T00:33:27.543Z,77.01
2022-12-01T00:35:40.928Z,77.17
2022-12-01T00:37:53.796Z,77.27
2022-12-01T00:40:08.295Z,77.29
2022-12-01T00:42:24.431Z,77.20
2022-12-01T00:44:37.277Z,77.24
2022-12-01T00:46:50.080Z,77.18
2022-12-01T00:49:02.834Z,77.17
2022-12-01T00:51:16.844Z,77.39
2022-12-01T00:53:30.419Z,77.51
2022-12-01T00:55:43.224Z,77.44
2022-12-01T00:57:56.085Z,77.34
2022-12-01T01:00:10.628Z,77.43
2022-12-01T01:02:23.485Z,77.58
2022-12-01T01:04:38.743Z,77.66
2022-12-01T01:06:52.399Z,77.79
2022-12-01T01:09:05.618Z,77.82
2022-12-01T01:11:19.062Z,77.84
2022-12-01T01:13:33.563Z,77.75
2022-12-01T01:15:46.965Z,77.91
2022-12-01T01:17:59.778Z,77.82
2022-12-01T01:20:15.737Z,77.92
2022-12-01T01:22:28.559Z,77.99
2022-12-01T01:24:42.161Z,78.11
2022-12-01T01:26:56.511Z,78.12
2022-12-01T01:29:10.455Z,78.20
2022-12-01T01:31:29.354Z,78.39
2022-12-01T01:33:42.337Z,78.17
2022-12-01T01:35:55.142Z,78.36
2022-12-01T01:38:08.709Z,78.36
2022-12-01T01:40:21.826Z,78.54
2022-12-01T01:42:34.916Z,78.54
2022-12-01T01:44:58.543Z,78.48
2022-12-01T01:47:11.421Z,78.64
2022-12-01T01:49:24.394Z,78.61
2022-12-01T01:51:41.938Z,78.61
2022-12-01T01:53:57.049Z,78.77
2022-12-01T01:56:10.971Z,78.94
2022-12-01T01:58:23.875Z,78.53
2022-12-01T02:00:37.124Z,78.91
2022-12-01T02:02:52.197Z,78.74
2022-12-01T02:05:12.582Z,78.76
2022-12-01T02:07:26.359Z,78.67
2022-12-01T02:09:39.997Z,78.89
2022-12-01T02:12:24.523Z,78.79
2022-12-01T02:15:06.792Z,78.73
2022-12-01T02:17:29.579Z,78.79
2022-12-01T02:20:03.743Z,78.67
2022-12-01T02:22:26.230Z,78.86
2022-12-01T02:24:53.871Z,78.88
2022-12-01T02:27:11.343Z,78.58
2022-12-01T02:30:02.046Z,78.56
2022-12-01T02:32:24.512Z,78.55
2022-12-01T02:34:44.505Z,78.48
2022-12-01T02:37:01.523Z,78.48
2022-12-01T02:39:20.751Z,78.52
2022-12-01T02:41:40.983Z,78.61
2022-12-01T02:44:01.872Z,78.31
2022-12-01T02:46:19.866Z,78.33
2022-12-01T02:48:36.133Z,78.21
2022-12-01T02:50:49.952Z,78.20
2022-12-01T02:53:04.429Z,78.21
2022-12-01T02:55:18.602Z,77.92
2022-12-01T02:57:33.104Z,78.19
2022-12-01T02:59:49.180Z,78.10
2022-12-01T03:02:14.247Z,78.25
2022-12-01T03:04:43.874Z,78.23
2022-12-01T03:07:07.783Z,78.26
2022-12-01T03:09:37.256Z,78.51
2022-12-01T03:12:00.982Z,78.29
2022-12-01T03:14:27.872Z,78.33
2022-12-01T03:16:50.625Z,78.38
2022-12-01T03:19:09.850Z,78.31
2022-12-01T03:21:30.356Z,78.29
2022-12-01T03:23:46.184Z,78.49
2022-12-01T03:26:02.462Z,78.29
2022-12-01T03:28:22.466Z,78.37
2022-12-01T03:30:38.737Z,78.47
2022-12-01T03:32:54.646Z,78.45
2022-12-01T03:35:12.047Z,78.45
2022-12-01T03:37:32.406Z,78.57
2022-12-01T03:39:49.738Z,78.19
2022-12-01T03:42:10.968Z,78.26
2022-12-01T03:44:28.892Z,78.47
2022-12-01T03:46:48.551Z,78.44
2022-12-01T03:49:01.604Z,78.40
2022-12-01T03:51:20.871Z,78.41
2022-12-01T03:53:40.050Z,78.57
2022-12-01T03:55:59.419Z,78.56
2022-12-01T03:58:15.834Z,78.41
2022-12-01T04:00:29.644Z,78.66
2022-12-01T04:02:42.740Z,78.70
2022-12-01T04:04:55.485Z,78.61
2022-12-01T04:07:08.303Z,78.61
2022-12-01T04:09:21.014Z,78.79
2022-12-01T04:11:50.325Z,78.65
2022-12-01T04:14:04.064Z,78.64
2022-12-01T04:16:17.152Z,78.79
2022-12-01T04:18:30.393Z,78.55
2022-12-01T04:20:44.323Z,78.68
2022-12-01T04:22:56.909Z,78.83
2022-12-01T04:25:12.606Z,78.77
2022-12-01T04:27:26.013Z,78.92
2022-12-01T04:29:39.003Z,78.48
2022-12-01T04:31:51.844Z,78.67
2022-12-01T04:34:05.212Z,78.63
2022-12-01T04:36:18.205Z,78.75
2022-12-01T04:38:32.052Z,78.78
2022-12-01T04:40:46.284Z,78.63
2022-12-01T04:42:59.173Z,78.99
2022-12-01T04:45:13.878Z,78.75
2022-12-01T04:47:26.811Z,78.81
2022-12-01T04:49:40.117Z,78.79
2022-12-01T04:51:53.558Z,78.83
2022-12-01T04:54:07.267Z,78.88
2022-12-01T04:56:20.214Z,78.86
2022-12-01T04:58:33.615Z,78.97
2022-12-01T05:00:46.633Z,78.73
2022-12-01T05:02:59.599Z,78.72
2022-12-01T05:05:13.001Z,78.73
2022-12-01T05:07:26.047Z,78.67
2022-12-01T05:09:38.917Z,78.67
2022-12-01T05:11:52.132Z,78.54
2022-12-01T05:14:05.571Z,78.46
2022-12-01T05:16:20.211Z,78.72
2022-12-01T05:18:33.244Z,78.35
2022-12-01T05:21:01.434Z,78.43
2022-12-01T05:23:16.985Z,78.41
2022-12-01T05:25:30.070Z,78.39
2022-12-01T05:27:43.156Z,78.58
2022-12-01T05:29:56.119Z,78.29
2022-12-01T05:32:09.292Z,78.60
2022-12-01T05:34:22.525Z,78.43
2022-12-01T05:36:35.759Z,78.47
2022-12-01T05:38:48.534Z,78.31
2022-12-01T05:41:01.940Z,78.52
2022-12-01T05:43:14.915Z,78.24
2022-12-01T05:45:29.447Z,78.43
2022-12-01T05:47:42.799Z,78.48
2022-12-01T05:49:59.534Z,78.55
2022-12-01T05:52:15.199Z,78.54
2022-12-01T05:54:27.894Z,78.45
2022-12-01T05:56:40.806Z,78.44
2022-12-01T05:58:53.640Z,78.45
2022-12-01T06:01:06.941Z,78.35
2022-12-01T06:03:20.026Z,78.13
2022-12-01T06:05:34.049Z,78.31
2022-12-01T06:07:48.444Z,78.49
2022-12-01T06:10:01.171Z,78.34
2022-12-01T06:12:14.107Z,77.96
2022-12-01T06:14:28.103Z,78.14
2022-12-01T06:16:41.369Z,78.30
2022-12-01T06:18:54.888Z,78.32
2022-12-01T06:21:08.736Z,78.45
2022-12-01T06:23:25.212Z,78.39
2022-12-01T06:25:40.467Z,78.50
2022-12-01T06:27:53.184Z,78.16
2022-12-01T06:30:06.549Z,78.34
2022-12-01T06:32:19.565Z,78.29
2022-12-01T06:34:32.637Z,78.35
2022-12-01T06:36:45.701Z,78.39
2022-12-01T06:38:58.577Z,78.27
2022-12-01T06:41:11.725Z,78.14
2022-12-01T06:43:24.458Z,78.13
2022-12-01T06:45:37.562Z,78.26
2022-12-01T06:47:51.829Z,78.29
2022-12-01T06:50:06.427Z,78.29
2022-12-01T06:52:19.478Z,78.45
2022-12-01T06:54:32.445Z,78.49
2022-12-01T06:56:45.139Z,78.11
2022-12-01T06:58:58.395Z,78.20
2022-12-01T07:01:16.596Z,78.00
2022-12-01T07:03:29.371Z,78.33
2022-12-01T07:05:42.473Z,78.57
2022-12-01T07:07:59.333Z,78.20
2022-12-01T07:10:15.514Z,78.53
2022-12-01T07:12:29.520Z,78.46
2022-12-01T07:14:43.606Z,78.71
2022-12-01T07:16:56.428Z,78.61
2022-12-01T07:19:09.122Z,78.93
2022-12-01T07:21:23.064Z,78.85
2022-12-01T07:23:36.524Z,78.85
2022-12-01T07:25:49.306Z,79.09
2022-12-01T07:28:02.646Z,78.99
2022-12-01T07:30:16.719Z,79.11
2022-12-01T07:32:29.666Z,78.93
2022-12-01T07:34:42.489Z,79.25
2022-12-01T07:36:55.405Z,79.23
2022-12-01T07:39:10.397Z,79.25
2022-12-01T07:41:24.323Z,79.20
2022-12-01T07:43:38.536Z,79.34
2022-12-01T07:45:54.581Z,79.15
2022-12-01T07:48:07.816Z,79.25
2022-12-01T07:50:20.679Z,79.33
2022-12-01T07:52:34.114Z,78.87
2022-12-01T07:54:46.936Z,79.03
2022-12-01T07:56:59.951Z,79.42
2022-12-01T07:59:13.199Z,79.18
2022-12-01T08:01:26.939Z,79.05
2022-12-01T08:03:40.278Z,79.13
2022-12-01T08:06:02.137Z,78.90
2022-12-01T08:08:15.188Z,79.04
2022-12-01T08:10:30.500Z,79.04
2022-12-01T08:12:43.325Z,79.08
2022-12-01T08:14:56.238Z,78.85
2022-12-01T08:17:09.025Z,78.48
2022-12-01T08:19:21.896Z,78.60
2022-12-01T08:21:34.739Z,78.63
2022-12-01T08:23:48.608Z,78.97
2022-12-01T08:26:03.208Z,78.63
2022-12-01T08:28:16.068Z,78.34
2022-12-01T08:30:30.503Z,78.63
2022-12-01T08:32:43.287Z,78.39
2022-12-01T08:34:56.135Z,78.54
2022-12-01T08:37:08.874Z,78.53
2022-12-01T08:39:21.519Z,78.46
2022-12-01T08:41:34.719Z,78.48
2022-12-01T08:44:02.687Z,78.62
2022-12-01T08:46:17.127Z,78.71
2022-12-01T08:48:31.162Z,78.73
2022-12-01T08:50:43.931Z,78.72
2022-12-01T08:52:56.633Z,79.08
2022-12-01T08:55:11.708Z,78.98
2022-12-01T08:57:24.701Z,79.32
2022-12-01T08:59:37.447Z,79.34
2022-12-01T09:01:56.310Z,79.55
2022-12-01T09:04:09.611Z,79.75
2022-12-01T09:06:26.115Z,79.72
2022-12-01T09:08:39.453Z,79.86
2022-12-01T09:10:58.676Z,79.83
2022-12-01T09:13:11.439Z,80.02
2022-12-01T09:15:24.280Z,79.97
2022-12-01T09:17:37.223Z,80.04
2022-12-01T09:19:50.392Z,79.87
2022-12-01T09:22:03.672Z,79.89
2022-12-01T09:24:18.636Z,80.08
2022-12-01T09:26:32.322Z,80.04
2022-12-01T09:28:45.247Z,79.90
2022-12-01T09:30:58.157Z,80.20
2022-12-01T09:33:10.914Z,80.01
2022-12-01T09:35:23.771Z,80.20
2022-12-01T09:37:36.659Z,80.05
2022-12-01T09:39:50.041Z,79.82
2022-12-01T09:42:09.000Z,79.91
2022-12-01T09:44:31.844Z,79.87
2022-12-01T09:46:50.126Z,79.77
2022-12-01T09:49:05.975Z,79.64
2022-12-01T09:51:21.836Z,79.92
2022-12-01T09:53:35.060Z,79.54
2022-12-01T09:55:48.127Z,79.81
2022-12-01T09:58:02.509Z,79.76
2022-12-01T10:00:20.212Z,79.49
2022-12-01T10:02:38.676Z,79.58
2022-12-01T10:04:53.892Z,79.64
2022-12-01T10:07:09.838Z,79.60
2022-12-01T10:09:31.288Z,79.47
2022-12-01T10:11:47.666Z,79.58
2022-12-01T10:14:01.505Z,79.57
2022-12-01T10:16:16.625Z,79.65
2022-12-01T10:18:39.546Z,79.45
2022-12-01T10:21:00.420Z,79.65
2022-12-01T10:23:45.333Z,79.54
2022-12-01T10:26:02.539Z,79.47
2022-12-01T10:28:48.606Z,79.50
2022-12-01T10:31:13.223Z,79.62
2022-12-01T10:33:29.839Z,79.50
2022-12-01T10:35:42.866Z,79.46
2022-12-01T10:37:59.838Z,79.43
2022-12-01T10:40:19.512Z,79.46
2022-12-01T10:42:41.662Z,79.34
2022-12-01T10:44:56.922Z,79.59
2022-12-01T10:47:19.500Z,79.47
2022-12-01T10:49:43.151Z,79.12
2022-12-01T10:52:02.293Z,79.46
2022-12-01T10:54:16.193Z,79.60
2022-12-01T10:56:29.331Z,79.50
2022-12-01T10:58:51.800Z,79.40
2022-12-01T11:01:07.134Z,79.36
2022-12-01T11:03:32.593Z,79.38
2022-12-01T11:05:46.916Z,79.34
2022-12-01T11:08:00.086Z,79.41
2022-12-01T11:10:22.714Z,79.60
2022-12-01T11:12:36.136Z,79.22
2022-12-01T11:14:52.005Z,79.42
2022-12-01T11:17:28.769Z,79.25
2022-12-01T11:19:41.583Z,79.33
2022-12-01T11:21:56.718Z,79.18
2022-12-01T11:24:30.279Z,79.25
2022-12-01T11:26:43.085Z,79.36
2022-12-01T11:29:03.531Z,79.19
2022-12-01T11:31:19.863Z,79.34
2022-12-01T11:33:36.916Z,79.33
2022-12-01T11:35:53.142Z,79.28
2022-12-01T11:40:48.977Z,79.26
2022-12-01T11:43:04.173Z,79.19
2022-12-01T11:45:34.302Z,79.39
2022-12-01T11:48:05.883Z,78.95
2022-12-01T11:50:33.524Z,79.23
2022-12-01T11:52:52.217Z,79.31
2022-12-01T11:55:26.378Z,79.09
2022-12-01T11:57:39.300Z,79.18
2022-12-01T11:59:53.049Z,79.12
2022-12-01T12:02:24.604Z,79.13
2022-12-01T12:04:53.194Z,79.15
2022-12-01T12:07:13.065Z,79.00
2022-12-01T12:12:29.834Z,79.08
2022-12-01T12:15:02.759Z,78.85
2022-12-01T12:17:40.131Z,78.75
2022-12-01T12:20:12.686Z,78.94
2022-12-01T12:22:36.839Z,79.09
2022-12-01T12:25:02.004Z,78.82
2022-12-01T12:27:22.723Z,79.11
2022-12-01T12:29:49.119Z,78.90
2022-12-01T12:32:16.615Z,79.08
2022-12-01T12:34:40.224Z,79.18
2022-12-01T12:37:03.933Z,79.16
2022-12-01T12:39:32.620Z,78.85
2022-12-01T12:41:49.729Z,78.79
2022-12-01T12:44:14.554Z,79.10
2022-12-01T12:46:39.001Z,79.05
2022-12-01T12:49:19.782Z,78.95
2022-12-01T12:51:38.381Z,78.60
2022-12-01T12:53:59.089Z,78.80
2022-12-01T12:56:16.870Z,78.64
2022-12-01T12:58:35.966Z,78.54
2022-12-01T13:00:52.764Z,78.97
2022-12-01T13:03:16.646Z,78.86
2022-12-01T13:05:35.119Z,78.87
2022-12-01T13:07:56.030Z,78.71
2022-12-01T13:10:15.547Z,78.82
2022-12-01T13:12:38.986Z,78.80
2022-12-01T13:15:01.066Z,79.00
2022-12-01T13:17:21.709Z,78.79
2022-12-01T13:19:38.160Z,78.79
2022-12-01T13:21:55.309Z,78.78
2022-12-01T13:24:16.232Z,78.58
2022-12-01T13:26:31.507Z,78.91
2022-12-01T13:28:49.212Z,78.80
2022-12-01T13:31:10.307Z,78.85
2022-12-01T13:33:25.696Z,78.60
2022-12-01T13:35:40.714Z,78.71
2022-12-01T13:37:54.025Z,78.40
2022-12-01T13:40:23.541Z,78.87
2022-12-01T13:42:38.348Z,78.70
2022-12-01T13:44:54.850Z,78.67
2022-12-01T13:47:29.496Z,78.56
2022-12-01T13:49:47.157Z,78.47
2022-12-01T13:52:29.554Z,78.47
2022-12-01T13:54:42.987Z,78.40
2022-12-01T13:57:09.128Z,78.20
2022-12-01T14:00:05.480Z,78.02
2022-12-01T14:02:38.020Z,78.25
2022-12-01T14:04:52.305Z,78.27
2022-12-01T14:07:44.460Z,78.58
2022-12-01T14:09:59.964Z,78.04
2022-12-01T14:12:23.071Z,78.26
2022-12-01T14:14:41.841Z,78.20
2022-12-01T14:16:56.946Z,78.32
2022-12-01T14:19:09.874Z,78.48
2022-12-01T14:21:42.955Z,78.58
2022-12-01T14:24:09.688Z,78.41
2022-12-01T14:26:25.550Z,78.41
2022-12-01T14:29:16.915Z,78.60
2022-12-01T14:31:51.415Z,78.60
2022-12-01T14:34:12.134Z,78.52
2022-12-01T14:36:45.012Z,78.36
2022-12-01T14:39:04.265Z,78.36
2022-12-01T14:41:23.631Z,78.37
2022-12-01T14:43:52.745Z,77.97
2022-12-01T14:46:11.001Z,78.34
2022-12-01T14:48:28.744Z,78.19
2022-12-01T14:50:47.353Z,78.19
2022-12-01T14:53:07.213Z,78.45
2022-12-01T14:55:24.148Z,78.44
2022-12-01T14:57:41.486Z,78.18
2022-12-01T15:00:08.206Z,78.13
2022-12-01T15:02:21.275Z,78.31
2022-12-01T15:04:35.794Z,78.20
2022-12-01T15:06:49.542Z,78.13
2022-12-01T15:09:35.590Z,78.01
2022-12-01T15:12:01.216Z,77.86
2022-12-01T15:14:36.866Z,78.03
2022-12-01T15:16:50.239Z,78.26
2022-12-01T15:19:03.419Z,78.14
2022-12-01T15:21:20.742Z,78.38
2022-12-01T15:23:33.355Z,78.00
2022-12-01T15:25:48.605Z,78.14
2022-12-01T15:28:18.635Z,77.96
2022-12-01T15:30:31.692Z,78.20
2022-12-01T15:32:46.853Z,78.29
2022-12-01T15:35:06.314Z,78.27
2022-12-01T15:37:22.535Z,77.98
2022-12-01T15:39:40.648Z,78.23
2022-12-01T15:41:55.296Z,78.20
2022-12-01T15:44:09.430Z,78.44
2022-12-01T15:46:29.424Z,78.50
2022-12-01T15:48:45.222Z,78.61
2022-12-01T15:51:08.608Z,78.70
2022-12-01T15:53:30.485Z,78.82
2022-12-01T15:55:44.353Z,78.91
2022-12-01T15:57:57.683Z,78.83
2022-12-01T16:00:21.943Z,78.79
2022-12-01T16:02:36.650Z,78.78
2022-12-01T16:04:50.920Z,78.98
2022-12-01T16:07:06.443Z,78.99
2022-12-01T16:09:29.592Z,79.28
2022-12-01T16:11:42.838Z,79.03
2022-12-01T16:14:04.226Z,79.17
2022-12-01T16:16:43.098Z,78.93
2022-12-01T16:19:00.609Z,78.92
2022-12-01T16:21:16.024Z,79.13
2022-12-01T16:23:30.186Z,79.24
2022-12-01T16:25:45.295Z,79.13
2022-12-01T16:28:02.637Z,78.52
2022-12-01T16:30:27.345Z,78.51
2022-12-01T16:32:43.417Z,78.55
2022-12-01T16:34:58.365Z,78.56
2022-12-01T16:37:12.287Z,78.46
2022-12-01T16:39:25.722Z,77.68
2022-12-01T16:41:40.180Z,76.76
2022-12-01T16:44:20.320Z,76.18
2022-12-01T16:46:25.980Z,75.53
2022-12-01T16:48:38.860Z,75.54
2022-12-01T16:50:53.303Z,75.31
2022-12-01T16:53:06.013Z,74.90
2022-12-01T16:55:41.556Z,74.83
2022-12-01T16:57:54.393Z,74.83
2022-12-01T17:00:08.232Z,74.79
2022-12-01T17:02:21.323Z,75.31
2022-12-01T17:04:34.178Z,75.02
2022-12-01T17:06:47.059Z,74.81
2022-12-01T17:09:00.099Z,74.78
2022-12-01T17:11:13.819Z,74.46
2022-12-01T17:13:27.351Z,74.49
2022-12-01T17:15:43.243Z,74.65
2022-12-01T17:17:56.386Z,73.86
2022-12-01T17:20:11.543Z,73.42
2022-12-01T17:22:24.766Z,73.21
2022-12-01T17:24:38.014Z,73.56
2022-12-01T17:26:50.964Z,73.51
2022-12-01T17:29:04.061Z,73.32
2022-12-01T17:31:17.648Z,73.13
2022-12-01T17:33:30.485Z,72.53
2022-12-01T17:35:43.658Z,72.24
2022-12-01T17:37:56.640Z,72.22
2022-12-01T17:40:11.052Z,72.72
2022-12-01T17:42:25.287Z,73.40
2022-12-01T17:44:40.101Z,73.50
2022-12-01T17:46:53.068Z,73.57
2022-12-01T17:49:10.407Z,73.29
2022-12-01T17:51:23.780Z,72.43
2022-12-01T17:53:37.081Z,72.06
2022-12-01T17:55:50.053Z,71.99
2022-12-01T17:58:04.457Z,71.68
2022-12-01T18:00:20.822Z,71.39
2022-12-01T18:02:33.665Z,71.33
2022-12-01T18:04:46.990Z,70.67
2022-12-01T18:07:00.282Z,70.80
2022-12-01T18:09:13.444Z,70.72
2022-12-01T18:11:27.189Z,70.46
2022-12-01T18:13:41.777Z,71.05
2022-12-01T18:15:55.004Z,69.91
2022-12-01T18:18:07.954Z,70.08
2022-12-01T18:20:21.074Z,70.89
2022-12-01T18:22:35.189Z,70.63
2022-12-01T18:24:48.577Z,70.41
2022-12-01T18:27:01.955Z,70.02
2022-12-01T18:29:19.586Z,70.19
2022-12-01T18:31:34.139Z,69.39
2022-12-01T18:33:48.103Z,69.27
2022-12-01T18:36:01.037Z,70.23
2022-12-01T18:38:14.534Z,69.48
2022-12-01T18:40:27.263Z,70.06
2022-12-01T18:42:40.141Z,70.56
2022-12-01T18:44:53.986Z,70.95
2022-12-01T18:47:07.547Z,71.05
2022-12-01T18:49:20.463Z,70.77
2022-12-01T18:51:35.107Z,68.72
2022-12-01T18:53:48.552Z,68.66
2022-12-01T18:56:04.526Z,68.64
2022-12-01T18:58:17.420Z,69.07
2022-12-01T19:00:30.471Z,69.16
2022-12-01T19:02:43.861Z,68.62
2022-12-01T19:04:56.788Z,68.93
2022-12-01T19:07:09.649Z,68.52
2022-12-01T19:09:22.888Z,68.74
2022-12-01T19:11:36.067Z,68.30
2022-12-01T19:13:49.525Z,68.32
2022-12-01T19:16:08.554Z,68.50
2022-12-01T19:18:21.586Z,68.36
2022-12-01T19:20:35.495Z,68.48
2022-12-01T19:22:48.493Z,68.38
2022-12-01T19:25:01.634Z,68.36
2022-12-01T19:27:14.774Z,68.79
2022-12-01T19:29:27.731Z,68.66
2022-12-01T19:31:40.827Z,68.31
2022-12-01T19:33:54.788Z,69.00
2022-12-01T19:36:14.933Z,68.75
2022-12-01T19:38:28.019Z,69.03
2022-12-01T19:40:43.114Z,68.96
2022-12-01T19:42:55.933Z,68.97
2022-12-01T19:45:09.427Z,69.62
2022-12-01T19:47:23.067Z,69.34
2022-12-01T19:49:37.062Z,69.56
2022-12-01T19:51:50.093Z,69.58
2022-12-01T19:54:03.306Z,69.40
2022-12-01T19:56:16.341Z,69.22
2022-12-01T19:58:29.242Z,69.06
2022-12-01T20:00:42.085Z,69.23
2022-12-01T20:02:55.387Z,69.41
2022-12-01T20:05:08.801Z,68.91
2022-12-01T20:07:21.455Z,68.69
2022-12-01T20:09:34.718Z,68.78
2022-12-01T20:11:47.459Z,68.94
2022-12-01T20:14:00.334Z,69.21
2022-12-01T20:16:15.628Z,69.21
2022-12-01T20:18:28.855Z,68.98
2022-12-01T20:20:41.573Z,68.92
2022-12-01T20:22:54.185Z,69.27
2022-12-01T20:25:08.450Z,69.18
2022-12-01T20:27:21.210Z,68.87
2022-12-01T20:29:35.697Z,68.25
2022-12-01T20:31:49.309Z,67.56
2022-12-01T20:34:04.502Z,67.47
2022-12-01T20:36:17.684Z,67.36
2022-12-01T20:38:31.961Z,67.18
2022-12-01T20:40:44.892Z,67.27
2022-12-01T20:42:58.116Z,67.10
2022-12-01T20:45:12.023Z,66.21
2022-12-01T20:47:24.430Z,67.26
2022-12-01T20:49:38.707Z,66.68
2022-12-01T20:51:51.716Z,66.86
2022-12-01T20:56:39.060Z,67.06
2022-12-01T20:58:53.818Z,65.63
2022-12-01T21:01:09.431Z,65.78
2022-12-01T21:03:22.519Z,65.50
2022-12-01T21:05:35.731Z,65.89
2022-12-01T21:07:48.453Z,65.66
2022-12-01T21:10:01.496Z,65.66
2022-12-01T21:12:35.045Z,65.49
2022-12-01T21:14:51.846Z,65.28
2022-12-01T21:17:12.446Z,64.93
2022-12-01T21:19:32.477Z,65.16
2022-12-01T21:21:46.813Z,65.21
2022-12-01T21:24:15.380Z,65.23
2022-12-01T21:26:28.858Z,64.92
2022-12-01T21:28:44.121Z,63.97
2022-12-01T21:31:03.077Z,63.53
2022-12-01T21:33:29.769Z,63.94
2022-12-01T21:35:43.274Z,63.77
2022-12-01T21:38:01.638Z,63.96
2022-12-01T21:40:22.084Z,64.29
2022-12-01T21:42:38.802Z,64.20
2022-12-01T21:44:52.273Z,63.83
2022-12-01T21:47:16.430Z,64.11
2022-12-01T21:49:37.406Z,64.06
2022-12-01T21:51:53.314Z,64.04
2022-12-01T21:54:10.201Z,63.81
2022-12-01T21:56:27.881Z,63.44
2022-12-01T21:58:43.065Z,63.30
2022-12-01T22:00:56.085Z,63.14
2022-12-01T22:03:29.194Z,62.77
2022-12-01T22:06:01.201Z,62.95
2022-12-01T22:08:30.976Z,62.99
2022-12-01T22:11:04.899Z,63.06
2022-12-01T22:13:18.909Z,62.77
2022-12-01T22:15:42.699Z,62.88
2022-12-01T22:17:56.070Z,62.86
2022-12-01T22:20:24.552Z,62.71
2022-12-01T22:22:43.074Z,62.55
2022-12-01T22:24:59.890Z,63.13
2022-12-01T22:27:30.811Z,63.17
2022-12-01T22:29:47.385Z,63.03
2022-12-01T22:32:24.948Z,62.60
2022-12-01T22:34:37.999Z,62.81
2022-12-01T22:36:50.653Z,62.99
2022-12-01T22:39:04.826Z,63.31
2022-12-01T22:41:21.467Z,63.39
2022-12-01T22:43:40.512Z,63.06
2022-12-01T22:46:02.404Z,63.18
2022-12-01T22:48:29.123Z,63.65
2022-12-01T22:50:44.329Z,63.52
2022-12-01T22:53:02.441Z,63.55
2022-12-01T22:55:23.141Z,63.26
2022-12-01T22:57:43.135Z,63.15
2022-12-01T22:59:56.402Z,63.13
2022-12-01T23:02:21.187Z,63.09
2022-12-01T23:04:35.790Z,63.44
2022-12-01T23:07:00.376Z,63.15
2022-12-01T23:09:18.367Z,62.42
2022-12-01T23:11:32.218Z,62.50
2022-12-01T23:13:45.133Z,62.62
2022-12-01T23:15:58.370Z,62.70
2022-12-01T23:18:30.725Z,62.59
2022-12-01T23:20:46.394Z,62.33
2022-12-01T23:23:03.501Z,62.34
2022-12-01T23:25:22.459Z,61.83
2022-12-01T23:27:37.850Z,61.44
2022-12-01T23:29:50.759Z,61.41
2022-12-01T23:32:04.027Z,61.36
2022-12-01T23:34:21.741Z,61.42
2022-12-01T23:36:35.718Z,61.33
2022-12-01T23:38:50.745Z,61.37
2022-12-01T23:41:08.560Z,61.20
2022-12-01T23:43:26.158Z,61.29
2022-12-01T23:45:39.713Z,61.15
2022-12-01T23:47:53.156Z,61.00
2022-12-01T23:50:09.963Z,61.22
2022-12-01T23:52:25.422Z,61.29
2022-12-01T23:54:41.672Z,60.97
2022-12-01T23:56:58.547Z,61.08
2022-12-01T23:59:15.537Z,61.21
